Home > Products > Valid Products > TAF

000
FTUS43 KMKX 242147 AAC
TAFMKE
TAF AMD
KMKE 242147Z 2422/2524 24016G29KT 1/2SM SN FZFG VV010
      TEMPO 2422/2423 3/4SM -SN OVC004
     FM242300 26017G28KT 1SM -SN OVC012
     FM250300 27015G23KT 3SM -SN BLSN OVC015
     FM250800 28012KT P6SM OVC020
     FM250900 28012KT P6SM OVC025
     FM252300 25009KT P6SM BKN025=



000
FTUS43 KMKX 242147 AAC
TAFMKE
TAF AMD
KMKE 242147Z 2422/2524 24016G29KT 1/2SM SN FZFG VV010
      TEMPO 2422/2423 3/4SM -SN OVC004
     FM242300 26017G28KT 1SM -SN OVC012
     FM250300 27015G23KT 3SM -SN BLSN OVC015
     FM250800 28012KT P6SM OVC020
     FM250900 28012KT P6SM OVC025
     FM252300 25009KT P6SM BKN025=



000
FTUS43 KMKX 242147 AAC
TAFMKE
TAF AMD
KMKE 242147Z 2422/2524 24016G29KT 1/2SM SN FZFG VV010
      TEMPO 2422/2423 3/4SM -SN OVC004
     FM242300 26017G28KT 1SM -SN OVC012
     FM250300 27015G23KT 3SM -SN BLSN OVC015
     FM250800 28012KT P6SM OVC020
     FM250900 28012KT P6SM OVC025
     FM252300 25009KT P6SM BKN025=



000
FTUS43 KMKX 242147 AAC
TAFMKE
TAF AMD
KMKE 242147Z 2422/2524 24016G29KT 1/2SM SN FZFG VV010
      TEMPO 2422/2423 3/4SM -SN OVC004
     FM242300 26017G28KT 1SM -SN OVC012
     FM250300 27015G23KT 3SM -SN BLSN OVC015
     FM250800 28012KT P6SM OVC020
     FM250900 28012KT P6SM OVC025
     FM252300 25009KT P6SM BKN025=



000
FTUS43 KMKX 242022 AAB
TAFMKE
TAF AMD
KMKE 242022Z 2420/2524 24016G22KT 1/4SM SN FG OVC009
      TEMPO 2420/2423 3/4SM -SN OVC004
     FM250000 26017G28KT 2SM -SN BLSN OVC015
     FM250300 27015G23KT 3SM -SN BLSN OVC015
     FM250800 28012KT P6SM OVC020
     FM250900 28012KT P6SM OVC025
     FM252300 25009KT P6SM BKN025=



000
FTUS43 KMKX 242022 AAB
TAFMKE
TAF AMD
KMKE 242022Z 2420/2524 24016G22KT 1/4SM SN FG OVC009
      TEMPO 2420/2423 3/4SM -SN OVC004
     FM250000 26017G28KT 2SM -SN BLSN OVC015
     FM250300 27015G23KT 3SM -SN BLSN OVC015
     FM250800 28012KT P6SM OVC020
     FM250900 28012KT P6SM OVC025
     FM252300 25009KT P6SM BKN025=



000
FTUS43 KMKX 241846 AAA
TAFMKE
TAF AMD
KMKE 241846Z 2419/2524 25014G22KT 2SM -SN BR BKN009 OVC016
      TEMPO 2419/2420 1SM -SN OVC007
     FM242000 26017G26KT 1SM -SN OVC007
      TEMPO 2420/2423 3/4SM -SN OVC004
     FM250000 26017G28KT 2SM -SN BLSN OVC015
     FM250300 27015G23KT 3SM -SN BLSN OVC015
     FM250800 28012KT P6SM OVC020
     FM250900 28012KT P6SM OVC025
     FM252300 25009KT P6SM BKN025=



000
FTUS43 KMKX 241846 AAA
TAFMKE
TAF AMD
KMKE 241846Z 2419/2524 25014G22KT 2SM -SN BR BKN009 OVC016
      TEMPO 2419/2420 1SM -SN OVC007
     FM242000 26017G26KT 1SM -SN OVC007
      TEMPO 2420/2423 3/4SM -SN OVC004
     FM250000 26017G28KT 2SM -SN BLSN OVC015
     FM250300 27015G23KT 3SM -SN BLSN OVC015
     FM250800 28012KT P6SM OVC020
     FM250900 28012KT P6SM OVC025
     FM252300 25009KT P6SM BKN025=



000
FTUS43 KMKX 241729
TAFMSN
TAF
KMSN 241729Z 2418/2518 28014G20KT 1/2SM SN OVC008
     FM242200 27014G23KT 1SM -SN BLSN OVC015
     FM250500 29012KT 3SM -SN BLSN OVC015
     FM250800 30010KT 5SM -SN BLSN OVC015
     FM250900 30009KT P6SM OVC020
     FM251100 29008KT P6SM OVC025
     FM251400 29008KT P6SM OVC045
     FM251700 28007KT P6SM BKN025=



000
FTUS43 KMKX 241729
TAFMKE
TAF
KMKE 241729Z 2418/2524 26016G24KT 3SM -RA BR OVC008
     FM241900 26017G26KT 2SM -RASN OVC008
     FM242000 26017G26KT 1SM -SN OVC007
      TEMPO 2420/2423 3/4SM -SN OVC004
     FM250000 26017G28KT 2SM -SN BLSN OVC015
     FM250300 27015G23KT 3SM -SN BLSN OVC015
     FM250800 28012KT P6SM OVC020
     FM250900 28012KT P6SM OVC025
     FM252300 25009KT P6SM BKN025=



000
FTUS43 KMKX 241657 AAF
TAFMKE
TAF AMD
KMKE 241657Z 2417/2518 27012G20KT 6SM -RA BR BKN009 BKN018 OVC026
     FM241730 26016G24KT 4SM -RASN OVC008
     FM241900 26017G26KT 2SM -SN OVC008
      TEMPO 2419/2423 1/2SM SN
     FM250000 26017G28KT 3SM -SN BLSN OVC015
     FM250700 28013KT 6SM -SN BLSN OVC020
     FM250800 28012KT 6SM BLSN OVC025
     FM251200 29013KT P6SM OVC025=



000
FTUS43 KMKX 241645 AAF
TAFMSN
TAF AMD
KMSN 241645Z 2417/2512 28008KT 1 1/2SM -SN BR BKN010 OVC017
      TEMPO 2417/2419 3/4SM -SN
     FM242100 27014G23KT 3SM -SN BLSN OVC015
     FM250600 29011KT 6SM -SN BLSN OVC020
     FM250900 30009KT 6SM BLSN OVC025
     FM251000 30009KT 6SM BLSN OVC035=



000
FTUS43 KMKX 241645 AAF
TAFMSN
TAF AMD
KMSN 241645Z 2417/2512 28008KT 1 1/2SM -SN BR BKN010 OVC017
      TEMPO 2417/2419 3/4SM -SN
     FM242100 27014G23KT 3SM -SN BLSN OVC015
     FM250600 29011KT 6SM -SN BLSN OVC020
     FM250900 30009KT 6SM BLSN OVC025
     FM251000 30009KT 6SM BLSN OVC035=



000
FTUS43 KMKX 241624 AAE
TAFMKE
TAF AMD
KMKE 241624Z 2416/2518 26013KT 6SM -RA BR BKN010 OVC017
     FM241730 26016G24KT 4SM -RASN OVC008
     FM241900 26017G26KT 2SM -SN OVC008
      TEMPO 2419/2423 1/2SM SN
     FM250000 26017G28KT 3SM -SN BLSN OVC015
     FM250700 28013KT 6SM -SN BLSN OVC020
     FM250800 28012KT 6SM BLSN OVC025
     FM251200 29013KT P6SM OVC025=



000
FTUS43 KMKX 241623 AAE
TAFMSN
TAF AMD
KMSN 241623Z 2416/2512 28009KT 5SM -RASN BR SCT008 OVC012
     FM241700 28012G21KT 1SM -SN OVC003
      TEMPO 2417/2419 3/4SM -SN
     FM242100 27014G23KT 3SM -SN BLSN OVC015
     FM250600 29011KT 6SM -SN BLSN OVC020
     FM250900 30009KT 6SM BLSN OVC025
     FM251000 30009KT 6SM BLSN OVC035=



000
FTUS43 KMKX 241623 AAE
TAFMSN
TAF AMD
KMSN 241623Z 2416/2512 28009KT 5SM -RASN BR SCT008 OVC012
     FM241700 28012G21KT 1SM -SN OVC003
      TEMPO 2417/2419 3/4SM -SN
     FM242100 27014G23KT 3SM -SN BLSN OVC015
     FM250600 29011KT 6SM -SN BLSN OVC020
     FM250900 30009KT 6SM BLSN OVC025
     FM251000 30009KT 6SM BLSN OVC035=



000
FTUS43 KMKX 241532 AAD
TAFMKE
TAF AMD
KMKE 241532Z 2416/2518 29011KT P6SM -RA OVC008
     FM241800 26016G24KT 6SM -RASN OVC008
     FM241900 26017G26KT 2SM -SN OVC008
      TEMPO 2419/2423 1/2SM SN
     FM250000 26017G28KT 3SM -SN BLSN OVC015
     FM250700 28013KT 6SM -SN BLSN OVC020
     FM250800 28012KT 6SM BLSN OVC025
     FM251200 29013KT P6SM OVC025=



000
FTUS43 KMKX 241532 AAD
TAFMSN
TAF AMD
KMSN 241532Z 2416/2512 30009G14KT 5SM -DZ BR OVC010
     FM241700 28012G21KT 1SM -SN OVC003
      TEMPO 2417/2419 1/2SM SN
     FM242100 27014G23KT 3SM -SN BLSN OVC015
     FM250600 29011KT 6SM -SN BLSN OVC020
     FM250900 30009KT 6SM BLSN OVC025
     FM251000 30009KT 6SM BLSN OVC035=



000
FTUS43 KMKX 241532 AAD
TAFMSN
TAF AMD
KMSN 241532Z 2416/2512 30009G14KT 5SM -DZ BR OVC010
     FM241700 28012G21KT 1SM -SN OVC003
      TEMPO 2417/2419 1/2SM SN
     FM242100 27014G23KT 3SM -SN BLSN OVC015
     FM250600 29011KT 6SM -SN BLSN OVC020
     FM250900 30009KT 6SM BLSN OVC025
     FM251000 30009KT 6SM BLSN OVC035=



000
FTUS43 KMKX 241511 AAC
TAFMKE
TAF AMD
KMKE 241511Z 2415/2518 29011KT P6SM -RA OVC008
      TEMPO 2415/2416 1 1/2SM -RA BR
     FM241600 27012KT 6SM -RA OVC008
     FM241800 26016G24KT 6SM -RASN OVC008
     FM241900 26017G26KT 2SM -SN OVC008
      TEMPO 2419/2423 1/2SM SN
     FM250000 26017G28KT 3SM -SN BLSN OVC015
     FM250700 28013KT 6SM -SN BLSN OVC020
     FM250800 28012KT 6SM BLSN OVC025
     FM251200 29013KT P6SM OVC025=



000
FTUS43 KMKX 241511 AAC
TAFMSN
TAF AMD
KMSN 241511Z 2415/2512 28011G19KT P6SM -DZ OVC009
     FM241700 28012G21KT 1SM -SN OVC003
      TEMPO 2417/2419 1/2SM SN
     FM242100 27014G23KT 3SM -SN BLSN OVC015
     FM250600 29011KT 6SM -SN BLSN OVC020
     FM250900 30009KT 6SM BLSN OVC025
     FM251000 30009KT 6SM BLSN OVC035=



000
FTUS43 KMKX 241511 AAC
TAFMSN
TAF AMD
KMSN 241511Z 2415/2512 28011G19KT P6SM -DZ OVC009
     FM241700 28012G21KT 1SM -SN OVC003
      TEMPO 2417/2419 1/2SM SN
     FM242100 27014G23KT 3SM -SN BLSN OVC015
     FM250600 29011KT 6SM -SN BLSN OVC020
     FM250900 30009KT 6SM BLSN OVC025
     FM251000 30009KT 6SM BLSN OVC035=



000
FTUS43 KMKX 241511 AAC
TAFMKE
TAF AMD
KMKE 241511Z 2415/2518 29011KT P6SM -RA OVC008
      TEMPO 2415/2416 1 1/2SM -RA BR
     FM241600 27012KT 6SM -RA OVC008
     FM241800 26016G24KT 6SM -RASN OVC008
     FM241900 26017G26KT 2SM -SN OVC008
      TEMPO 2419/2423 1/2SM SN
     FM250000 26017G28KT 3SM -SN BLSN OVC015
     FM250700 28013KT 6SM -SN BLSN OVC020
     FM250800 28012KT 6SM BLSN OVC025
     FM251200 29013KT P6SM OVC025=



000
FTUS43 KMKX 241445 AAB
TAFMKE
TAF AMD
KMKE 241445Z 2415/2518 29006KT 5SM BR OVC006
      TEMPO 2415/2416 1 1/2SM -RA BR
     FM241600 27012KT 6SM -RA OVC008
     FM241800 26016G24KT 6SM -RASN OVC008
     FM241900 26017G26KT 2SM -SN OVC008
      TEMPO 2419/2423 1/2SM SN
     FM250000 26017G28KT 3SM -SN BLSN OVC015
     FM250700 28013KT 6SM -SN BLSN OVC020
     FM250800 28012KT 6SM BLSN OVC025
     FM251200 29013KT P6SM OVC025=



000
FTUS43 KMKX 241445 AAB
TAFMKE
TAF AMD
KMKE 241445Z 2415/2518 29006KT 5SM BR OVC006
      TEMPO 2415/2416 1 1/2SM -RA BR
     FM241600 27012KT 6SM -RA OVC008
     FM241800 26016G24KT 6SM -RASN OVC008
     FM241900 26017G26KT 2SM -SN OVC008
      TEMPO 2419/2423 1/2SM SN
     FM250000 26017G28KT 3SM -SN BLSN OVC015
     FM250700 28013KT 6SM -SN BLSN OVC020
     FM250800 28012KT 6SM BLSN OVC025
     FM251200 29013KT P6SM OVC025=



000
FTUS43 KMKX 241444 AAB
TAFMSN
TAF AMD
KMSN 241444Z 2415/2512 29009KT P6SM BKN008 OVC012
     FM241700 28012G21KT 1SM -SN OVC003
      TEMPO 2417/2419 1/2SM SN
     FM242100 27014G23KT 3SM -SN BLSN OVC015
     FM250600 29011KT 6SM -SN BLSN OVC020
     FM250900 30009KT 6SM BLSN OVC025
     FM251000 30009KT 6SM BLSN OVC035=



000
FTUS43 KMKX 241444 AAB
TAFMSN
TAF AMD
KMSN 241444Z 2415/2512 29009KT P6SM BKN008 OVC012
     FM241700 28012G21KT 1SM -SN OVC003
      TEMPO 2417/2419 1/2SM SN
     FM242100 27014G23KT 3SM -SN BLSN OVC015
     FM250600 29011KT 6SM -SN BLSN OVC020
     FM250900 30009KT 6SM BLSN OVC025
     FM251000 30009KT 6SM BLSN OVC035=



000
FTUS43 KMKX 241346 AAA
TAFMKE
TAF AMD
KMKE 241346Z 2414/2518 27006KT 6SM -DZ BR OVC004
      TEMPO 2414/2416 1 1/2SM -RA BR
     FM241600 27012KT 6SM -RA OVC008
     FM241800 26016G24KT 6SM -RASN OVC008
     FM241900 26017G26KT 2SM -SN OVC008
      TEMPO 2419/2423 1/2SM SN
     FM250000 26017G28KT 3SM -SN BLSN OVC015
     FM250700 28013KT 6SM -SN BLSN OVC020
     FM250800 28012KT 6SM BLSN OVC025
     FM251200 29013KT P6SM OVC025=



000
FTUS43 KMKX 241346 AAA
TAFMKE
TAF AMD
KMKE 241346Z 2414/2518 27006KT 6SM -DZ BR OVC004
      TEMPO 2414/2416 1 1/2SM -RA BR
     FM241600 27012KT 6SM -RA OVC008
     FM241800 26016G24KT 6SM -RASN OVC008
     FM241900 26017G26KT 2SM -SN OVC008
      TEMPO 2419/2423 1/2SM SN
     FM250000 26017G28KT 3SM -SN BLSN OVC015
     FM250700 28013KT 6SM -SN BLSN OVC020
     FM250800 28012KT 6SM BLSN OVC025
     FM251200 29013KT P6SM OVC025=



000
FTUS43 KMKX 241345 AAA
TAFMSN
TAF AMD
KMSN 241345Z 2414/2512 30008KT 6SM -DZ OVC003
      TEMPO 2414/2415 SCT004 OVC010
     FM241500 29010G17KT 6SM -RASN OVC003
     FM241700 28012G21KT 1SM -SN OVC003
      TEMPO 2417/2419 1/2SM SN
     FM242100 27014G23KT 3SM -SN BLSN OVC015
     FM250600 29011KT 6SM -SN BLSN OVC020
     FM250900 30009KT 6SM BLSN OVC025
     FM251000 30009KT 6SM BLSN OVC035=



000
FTUS43 KMKX 241345 AAA
TAFMSN
TAF AMD
KMSN 241345Z 2414/2512 30008KT 6SM -DZ OVC003
      TEMPO 2414/2415 SCT004 OVC010
     FM241500 29010G17KT 6SM -RASN OVC003
     FM241700 28012G21KT 1SM -SN OVC003
      TEMPO 2417/2419 1/2SM SN
     FM242100 27014G23KT 3SM -SN BLSN OVC015
     FM250600 29011KT 6SM -SN BLSN OVC020
     FM250900 30009KT 6SM BLSN OVC025
     FM251000 30009KT 6SM BLSN OVC035=



000
FTUS43 KMKX 241157
TAFMSN
TAF
KMSN 241157Z 2412/2512 30008KT 6SM -RA OVC003
     FM241500 29010G17KT 6SM -RASN OVC003
     FM241700 28012G21KT 1SM -SN OVC003
      TEMPO 2417/2419 1/2SM SN
     FM242100 27014G23KT 3SM -SN BLSN OVC015
     FM250600 29011KT 6SM -SN BLSN OVC020
     FM250900 30009KT 6SM BLSN OVC025
     FM251000 30009KT 6SM BLSN OVC035=



000
FTUS43 KMKX 241157
TAFMKE
TAF
KMKE 241157Z 2412/2518 27006KT 6SM -DZ BR OVC004
     FM241600 27012KT 6SM -RA OVC008
     FM241800 26016G24KT 6SM -RASN OVC008
     FM241900 26017G26KT 2SM -SN OVC008
      TEMPO 2419/2423 1/2SM SN
     FM250000 26017G28KT 3SM -SN BLSN OVC015
     FM250700 28013KT 6SM -SN BLSN OVC020
     FM250800 28012KT 6SM BLSN OVC025
     FM251200 29013KT P6SM OVC025=



000
FTUS43 KMKX 241157
TAFMSN
TAF
KMSN 241157Z 2412/2512 30008KT 6SM -RA OVC003
     FM241500 29010G17KT 6SM -RASN OVC003
     FM241700 28012G21KT 1SM -SN OVC003
      TEMPO 2417/2419 1/2SM SN
     FM242100 27014G23KT 3SM -SN BLSN OVC015
     FM250600 29011KT 6SM -SN BLSN OVC020
     FM250900 30009KT 6SM BLSN OVC025
     FM251000 30009KT 6SM BLSN OVC035=



000
FTUS43 KMKX 241157
TAFMKE
TAF
KMKE 241157Z 2412/2518 27006KT 6SM -DZ BR OVC004
     FM241600 27012KT 6SM -RA OVC008
     FM241800 26016G24KT 6SM -RASN OVC008
     FM241900 26017G26KT 2SM -SN OVC008
      TEMPO 2419/2423 1/2SM SN
     FM250000 26017G28KT 3SM -SN BLSN OVC015
     FM250700 28013KT 6SM -SN BLSN OVC020
     FM250800 28012KT 6SM BLSN OVC025
     FM251200 29013KT P6SM OVC025=



000
FTUS43 KMKX 241020 AAB
TAFMSN
TAF AMD
KMSN 241020Z 2410/2506 30007KT 3SM -DZ BR OVC003
     FM241300 30010KT 2SM -SHRA OVC003
     FM241600 30013G22KT 1SM -RASN OVC003
     FM241800 29015G26KT 3/4SM -SN BR OVC008
     FM250000 28013G24KT 4SM -SN BLSN OVC013
     FM250300 29010G18KT 6SM -SN OVC018=



000
FTUS43 KMKX 241020 AAB
TAFMSN
TAF AMD
KMSN 241020Z 2410/2506 30007KT 3SM -DZ BR OVC003
     FM241300 30010KT 2SM -SHRA OVC003
     FM241600 30013G22KT 1SM -RASN OVC003
     FM241800 29015G26KT 3/4SM -SN BR OVC008
     FM250000 28013G24KT 4SM -SN BLSN OVC013
     FM250300 29010G18KT 6SM -SN OVC018=



000
FTUS43 KMKX 241019 AAA
TAFMKE
TAF AMD
KMKE 241019Z 2410/2512 27005KT 3SM -RA BR OVC003
      TEMPO 2410/2412 SCT003 BKN010 OVC025
     FM241600 28012G20KT 3SM -RA BR OVC008
     FM241800 27016G23KT 3SM -RASN BR OVC008
     FM242000 27017G25KT 3/4SM -SN BR OVC010
     FM250000 27017G28KT 4SM -SN OVC015
     FM250300 27014G24KT 6SM -SN BLSN OVC020
     FM250700 28012G19KT 6SM -SN BLSN OVC035=



000
FTUS43 KMKX 241019 AAA
TAFMKE
TAF AMD
KMKE 241019Z 2410/2512 27005KT 3SM -RA BR OVC003
      TEMPO 2410/2412 SCT003 BKN010 OVC025
     FM241600 28012G20KT 3SM -RA BR OVC008
     FM241800 27016G23KT 3SM -RASN BR OVC008
     FM242000 27017G25KT 3/4SM -SN BR OVC010
     FM250000 27017G28KT 4SM -SN OVC015
     FM250300 27014G24KT 6SM -SN BLSN OVC020
     FM250700 28012G19KT 6SM -SN BLSN OVC035=



000
FTUS43 KMKX 240621 AAA
TAFMSN
TAF AMD
KMSN 240621Z 2406/2506 00000KT 1/4SM -RA FG OVC002
     FM240900 30007KT 1SM -RA BR OVC003
     FM241300 30010KT 2SM -SHRA OVC003
     FM241600 30013G22KT 1SM -RASN OVC003
     FM241800 29015G26KT 3/4SM -SN BR OVC008
     FM250000 28013G24KT 4SM -SN BLSN OVC013
     FM250300 29010G18KT 6SM -SN OVC018=



000
FTUS43 KMKX 240621 AAA
TAFMSN
TAF AMD
KMSN 240621Z 2406/2506 00000KT 1/4SM -RA FG OVC002
     FM240900 30007KT 1SM -RA BR OVC003
     FM241300 30010KT 2SM -SHRA OVC003
     FM241600 30013G22KT 1SM -RASN OVC003
     FM241800 29015G26KT 3/4SM -SN BR OVC008
     FM250000 28013G24KT 4SM -SN BLSN OVC013
     FM250300 29010G18KT 6SM -SN OVC018=



000
FTUS43 KMKX 240520
TAFMKE
TAF
KMKE 240520Z 2406/2512 00000KT 1/2SM -RA FG OVC003
     FM241100 27006KT 1 1/2SM -RA BR OVC003
     FM241600 28012G20KT 3SM -RA BR OVC008
     FM241800 27016G23KT 3SM -RASN BR OVC008
     FM242000 27017G25KT 3/4SM -SN BR OVC010
     FM250000 27017G28KT 4SM -SN OVC015
     FM250300 27014G24KT 6SM -SN BLSN OVC020
     FM250700 28012G19KT 6SM -SN BLSN OVC035=



000
FTUS43 KMKX 240520
TAFMSN
TAF
KMSN 240520Z 2406/2506 00000KT 1/2SM -RA FG OVC002
     FM240900 30007KT 1SM -RA BR OVC003
     FM241300 30010KT 2SM -SHRA OVC003
     FM241600 30013G22KT 1SM -RASN OVC003
     FM241800 29015G26KT 3/4SM -SN BR OVC008
     FM250000 28013G24KT 4SM -SN BLSN OVC013
     FM250300 29010G18KT 6SM -SN OVC018=



000
FTUS43 KMKX 240520
TAFMKE
TAF
KMKE 240520Z 2406/2512 00000KT 1/2SM -RA FG OVC003
     FM241100 27006KT 1 1/2SM -RA BR OVC003
     FM241600 28012G20KT 3SM -RA BR OVC008
     FM241800 27016G23KT 3SM -RASN BR OVC008
     FM242000 27017G25KT 3/4SM -SN BR OVC010
     FM250000 27017G28KT 4SM -SN OVC015
     FM250300 27014G24KT 6SM -SN BLSN OVC020
     FM250700 28012G19KT 6SM -SN BLSN OVC035=



000
FTUS43 KMKX 240520
TAFMSN
TAF
KMSN 240520Z 2406/2506 00000KT 1/2SM -RA FG OVC002
     FM240900 30007KT 1SM -RA BR OVC003
     FM241300 30010KT 2SM -SHRA OVC003
     FM241600 30013G22KT 1SM -RASN OVC003
     FM241800 29015G26KT 3/4SM -SN BR OVC008
     FM250000 28013G24KT 4SM -SN BLSN OVC013
     FM250300 29010G18KT 6SM -SN OVC018=



000
FTUS43 KMKX 240302 AAA
TAFMKE
TAF AMD
KMKE 240302Z 2403/2506 12005KT 3SM -RA BR OVC002
     FM240700 VRB03KT 3/4SM -RA BR OVC002
     FM241200 28007KT 3SM -RA OVC008
     FM241600 29011G20KT 3SM -RA OVC010
     FM241900 29015G23KT 3SM -RASN OVC010
     FM242100 27016G25KT 1SM -SN OVC012
     FM250300 27014G24KT 6SM -SN BLSN OVC020=



000
FTUS43 KMKX 232320
TAFMKE
TAF
KMKE 232320Z 2400/2506 14008KT 3SM -RA BR OVC005
     FM240300 12005KT 1 1/2SM -RA BR OVC003
     FM240700 VRB03KT 1SM -RA BR OVC003
     FM241200 28007KT 3SM -RA OVC008
     FM241600 29011G20KT 3SM -RA OVC010
     FM241900 29015G23KT 3SM -RASN OVC010
     FM242100 27016G25KT 1SM -SN OVC012
     FM250300 27014G24KT 6SM -SN BLSN OVC020=



000
FTUS43 KMKX 232320
TAFMSN
TAF
KMSN 232320Z 2400/2424 13006KT 2SM -RA BR OVC005
     FM240400 VRB03KT 3/4SM -RA BR OVC003
     FM240900 31007KT 1SM -RA BR OVC003
     FM241500 31011G22KT 1SM -SN OVC010
     FM241800 30014G24KT 3/4SM -SN BLSN OVC010=



000
FTUS43 KMKX 232320
TAFMSN
TAF
KMSN 232320Z 2400/2424 13006KT 2SM -RA BR OVC005
     FM240400 VRB03KT 3/4SM -RA BR OVC003
     FM240900 31007KT 1SM -RA BR OVC003
     FM241500 31011G22KT 1SM -SN OVC010
     FM241800 30014G24KT 3/4SM -SN BLSN OVC010=



000
FTUS43 KMKX 232320
TAFMKE
TAF
KMKE 232320Z 2400/2506 14008KT 3SM -RA BR OVC005
     FM240300 12005KT 1 1/2SM -RA BR OVC003
     FM240700 VRB03KT 1SM -RA BR OVC003
     FM241200 28007KT 3SM -RA OVC008
     FM241600 29011G20KT 3SM -RA OVC010
     FM241900 29015G23KT 3SM -RASN OVC010
     FM242100 27016G25KT 1SM -SN OVC012
     FM250300 27014G24KT 6SM -SN BLSN OVC020=



000
FTUS43 KMKX 232227 AAE
TAFMKE
TAF AMD
KMKE 232227Z 2322/2424 15009KT 3SM -RA BR BKN006 OVC010
     FM240200 12008KT 1SM -RA BR OVC004
     FM241200 27008KT 3SM -RA BR OVC005
     FM241500 27012G20KT 3SM -RA OVC003
     FM241900 26018G28KT 3SM -RASN OVC005
     FM242100 26022G34KT 2SM -SN OVC008=



000
FTUS43 KMKX 232227 AAE
TAFMKE
TAF AMD
KMKE 232227Z 2322/2424 15009KT 3SM -RA BR BKN006 OVC010
     FM240200 12008KT 1SM -RA BR OVC004
     FM241200 27008KT 3SM -RA BR OVC005
     FM241500 27012G20KT 3SM -RA OVC003
     FM241900 26018G28KT 3SM -RASN OVC005
     FM242100 26022G34KT 2SM -SN OVC008=



000
FTUS43 KMKX 232139 AAD
TAFMKE
TAF AMD
KMKE 232139Z 2322/2424 16009KT 3SM -RA BR FEW005 OVC011
     FM240200 12008KT 1SM -RA BR OVC003
     FM241200 27008KT 3SM -RA BR OVC005
     FM241500 27012G20KT 3SM -RA OVC003
     FM241900 26018G28KT 3SM -RASN OVC005
     FM242100 26022G34KT 2SM -SN OVC008=



000
FTUS43 KMKX 232139 AAD
TAFMKE
TAF AMD
KMKE 232139Z 2322/2424 16009KT 3SM -RA BR FEW005 OVC011
     FM240200 12008KT 1SM -RA BR OVC003
     FM241200 27008KT 3SM -RA BR OVC005
     FM241500 27012G20KT 3SM -RA OVC003
     FM241900 26018G28KT 3SM -RASN OVC005
     FM242100 26022G34KT 2SM -SN OVC008=



000
FTUS43 KMKX 232126 AAC
TAFMKE
TAF AMD
KMKE 232126Z 2321/2424 16010KT 2SM -RA BR SCT005 OVC011
     FM232200 15011KT 2SM -RA BR OVC008
     FM240200 12008KT 3/4SM -RA BR OVC003
     FM240600 11005KT 1SM -RA BR OVC003
     FM241200 27008KT 3SM -RA BR OVC005
     FM241500 27012G20KT 3SM -RA OVC003
     FM241900 26018G28KT 3SM -RASN OVC005
     FM242100 26022G34KT 2SM -SN OVC008=



000
FTUS43 KMKX 232126 AAC
TAFMKE
TAF AMD
KMKE 232126Z 2321/2424 16010KT 2SM -RA BR SCT005 OVC011
     FM232200 15011KT 2SM -RA BR OVC008
     FM240200 12008KT 3/4SM -RA BR OVC003
     FM240600 11005KT 1SM -RA BR OVC003
     FM241200 27008KT 3SM -RA BR OVC005
     FM241500 27012G20KT 3SM -RA OVC003
     FM241900 26018G28KT 3SM -RASN OVC005
     FM242100 26022G34KT 2SM -SN OVC008=



000
FTUS43 KMKX 232126 AAC
TAFMKE
TAF AMD
KMKE 232126Z 2321/2424 16010KT 2SM -RA BR SCT005 OVC011
     FM232200 15011KT 2SM -RA BR OVC008
     FM240200 12008KT 3/4SM -RA BR OVC003
     FM240600 11005KT 1SM -RA BR OVC003
     FM241200 27008KT 3SM -RA BR OVC005
     FM241500 27012G20KT 3SM -RA OVC003
     FM241900 26018G28KT 3SM -RASN OVC005
     FM242100 26022G34KT 2SM -SN OVC008=



000
FTUS43 KMKX 232126 AAC
TAFMKE
TAF AMD
KMKE 232126Z 2321/2424 16010KT 2SM -RA BR SCT005 OVC011
     FM232200 15011KT 2SM -RA BR OVC008
     FM240200 12008KT 3/4SM -RA BR OVC003
     FM240600 11005KT 1SM -RA BR OVC003
     FM241200 27008KT 3SM -RA BR OVC005
     FM241500 27012G20KT 3SM -RA OVC003
     FM241900 26018G28KT 3SM -RASN OVC005
     FM242100 26022G34KT 2SM -SN OVC008=



000
FTUS43 KMKX 232111 AAB
TAFMKE
TAF AMD
KMKE 232111Z 2321/2424 15009KT 3SM -RA BR BKN005 OVC012
     FM232200 15011KT 2SM -RA BR OVC008
     FM240200 12008KT 3/4SM -RA BR OVC003
     FM240600 11005KT 1SM -RA BR OVC003
     FM241200 27008KT 3SM -RA BR OVC005
     FM241500 27012G20KT 3SM -RA OVC003
     FM241900 26018G28KT 3SM -RASN OVC005
     FM242100 26022G34KT 2SM -SN OVC008=



000
FTUS43 KMKX 232111 AAB
TAFMKE
TAF AMD
KMKE 232111Z 2321/2424 15009KT 3SM -RA BR BKN005 OVC012
     FM232200 15011KT 2SM -RA BR OVC008
     FM240200 12008KT 3/4SM -RA BR OVC003
     FM240600 11005KT 1SM -RA BR OVC003
     FM241200 27008KT 3SM -RA BR OVC005
     FM241500 27012G20KT 3SM -RA OVC003
     FM241900 26018G28KT 3SM -RASN OVC005
     FM242100 26022G34KT 2SM -SN OVC008=



000
FTUS43 KMKX 232000 AAA
TAFMKE
TAF AMD
KMKE 232000Z 2320/2424 15007KT 3SM -RA BR FEW060 OVC080
     FM232200 15011KT 2SM RA BR OVC010
     FM240200 12008KT 3/4SM RA BR OVC003
     FM240600 11005KT 1SM -RA BR OVC003
     FM241200 27008KT 3SM -RA BR OVC005
     FM241500 27012G20KT 3SM -RA OVC003
     FM241900 26018G28KT 3SM -RASN OVC005
     FM242100 26022G34KT 2SM -SN OVC008=



000
FTUS43 KMKX 232000 AAA
TAFMKE
TAF AMD
KMKE 232000Z 2320/2424 15007KT 3SM -RA BR FEW060 OVC080
     FM232200 15011KT 2SM RA BR OVC010
     FM240200 12008KT 3/4SM RA BR OVC003
     FM240600 11005KT 1SM -RA BR OVC003
     FM241200 27008KT 3SM -RA BR OVC005
     FM241500 27012G20KT 3SM -RA OVC003
     FM241900 26018G28KT 3SM -RASN OVC005
     FM242100 26022G34KT 2SM -SN OVC008=



000
FTUS43 KMKX 232000 AAA
TAFMKE
TAF AMD
KMKE 232000Z 2320/2424 15007KT 3SM -RA BR FEW060 OVC080
     FM232200 15011KT 2SM RA BR OVC010
     FM240200 12008KT 3/4SM RA BR OVC003
     FM240600 11005KT 1SM -RA BR OVC003
     FM241200 27008KT 3SM -RA BR OVC005
     FM241500 27012G20KT 3SM -RA OVC003
     FM241900 26018G28KT 3SM -RASN OVC005
     FM242100 26022G34KT 2SM -SN OVC008=



000
FTUS43 KMKX 231959 AAA
TAFMSN
TAF AMD
KMSN 231959Z 2320/2418 16007KT 3SM -RA BR BKN005 OVC070
     FM240000 12008KT 1SM -RA BR OVC003
     FM240300 10004KT 3/4SM -RA BR OVC003
     FM240600 VRB03KT 3/4SM -RA OVC003
     FM241100 30008KT 2SM -RA OVC003
     FM241600 30012G22KT 2SM -RASN OVC003=



000
FTUS43 KMKX 231959 AAA
TAFMSN
TAF AMD
KMSN 231959Z 2320/2418 16007KT 3SM -RA BR BKN005 OVC070
     FM240000 12008KT 1SM -RA BR OVC003
     FM240300 10004KT 3/4SM -RA BR OVC003
     FM240600 VRB03KT 3/4SM -RA OVC003
     FM241100 30008KT 2SM -RA OVC003
     FM241600 30012G22KT 2SM -RASN OVC003=



000
FTUS43 KMKX 231726
TAFMKE
TAF
KMKE 231726Z 2318/2424 18009KT 6SM -RA BR OVC050
     FM232000 16010KT 3SM -RA BR OVC015
     FM232200 15011KT 2SM RA BR OVC010
     FM240200 12008KT 3/4SM RA BR OVC003
     FM240600 11005KT 1SM -RA BR OVC003
     FM241200 27008KT 3SM -RA BR OVC005
     FM241500 27012G20KT 3SM -RA OVC003
     FM241900 26018G28KT 3SM -RASN OVC005
     FM242100 26022G34KT 2SM -SN OVC008=



000
FTUS43 KMKX 231726
TAFMSN
TAF
KMSN 231726Z 2318/2418 17008KT 2SM -RA BR OVC008
     FM240000 12008KT 1SM -RA BR OVC003
     FM240300 10004KT 3/4SM -RA BR OVC003
     FM240600 VRB03KT 3/4SM -RA OVC003
     FM241100 30008KT 2SM -RA OVC003
     FM241600 30012G22KT 2SM -RASN OVC003=



000
FTUS43 KMKX 231726
TAFMSN
TAF
KMSN 231726Z 2318/2418 17008KT 2SM -RA BR OVC008
     FM240000 12008KT 1SM -RA BR OVC003
     FM240300 10004KT 3/4SM -RA BR OVC003
     FM240600 VRB03KT 3/4SM -RA OVC003
     FM241100 30008KT 2SM -RA OVC003
     FM241600 30012G22KT 2SM -RASN OVC003=



000
FTUS43 KMKX 231726
TAFMKE
TAF
KMKE 231726Z 2318/2424 18009KT 6SM -RA BR OVC050
     FM232000 16010KT 3SM -RA BR OVC015
     FM232200 15011KT 2SM RA BR OVC010
     FM240200 12008KT 3/4SM RA BR OVC003
     FM240600 11005KT 1SM -RA BR OVC003
     FM241200 27008KT 3SM -RA BR OVC005
     FM241500 27012G20KT 3SM -RA OVC003
     FM241900 26018G28KT 3SM -RASN OVC005
     FM242100 26022G34KT 2SM -SN OVC008=



000
FTUS43 KMKX 231702 AAB
TAFMKE
TAF AMD
KMKE 231702Z 2317/2418 19008KT 6SM -RA BR SCT050 BKN070 OVC090
     FM232000 16010KT 3SM RA BR OVC015
     FM240200 12008KT 3/4SM RA OVC007
     FM240600 11005KT 1SM -RA OVC003
     FM241000 23004KT 2SM -RA OVC008
     FM241200 27008KT 3SM -RA OVC015
     FM241500 27012G20KT 3SM -RA OVC008
     FM241700 26018G28KT 3SM -RASN OVC015=



000
FTUS43 KMKX 231702 AAB
TAFMKE
TAF AMD
KMKE 231702Z 2317/2418 19008KT 6SM -RA BR SCT050 BKN070 OVC090
     FM232000 16010KT 3SM RA BR OVC015
     FM240200 12008KT 3/4SM RA OVC007
     FM240600 11005KT 1SM -RA OVC003
     FM241000 23004KT 2SM -RA OVC008
     FM241200 27008KT 3SM -RA OVC015
     FM241500 27012G20KT 3SM -RA OVC008
     FM241700 26018G28KT 3SM -RASN OVC015=



000
FTUS43 KMKX 231622 AAA
TAFMSN
TAF AMD
KMSN 231622Z 2316/2412 18010KT 4SM -RA BR OVC009
     FM231800 18010KT 2SM -RA BR OVC005
     FM240000 12008KT 3/4SM RA OVC003
     FM240300 10004KT 1/2SM RA OVC003
     FM240400 VRB03KT 3/4SM -RA OVC003
     FM241100 30008KT 2SM -RA OVC003=



000
FTUS43 KMKX 231622 AAA
TAFMSN
TAF AMD
KMSN 231622Z 2316/2412 18010KT 4SM -RA BR OVC009
     FM231800 18010KT 2SM -RA BR OVC005
     FM240000 12008KT 3/4SM RA OVC003
     FM240300 10004KT 1/2SM RA OVC003
     FM240400 VRB03KT 3/4SM -RA OVC003
     FM241100 30008KT 2SM -RA OVC003=



000
FTUS43 KMKX 231316 AAA
TAFMKE
TAF AMD
KMKE 231316Z 2313/2418 19009KT 5SM -DZ BR OVC010
     FM231600 18010G17KT 3SM -DZ BR SCT006 OVC015
     FM232000 16010KT 3SM RA BR OVC003
     FM240200 12008KT 3/4SM RA OVC003
     FM240600 11005KT 1SM -RA OVC003
     FM241000 23004KT 2SM -RA OVC008
     FM241200 27008KT 3SM -RA OVC015
     FM241500 27012G20KT 3SM -RA OVC008
     FM241700 26018G28KT 3SM -RASN OVC015=



000
FTUS43 KMKX 231316 AAA
TAFMKE
TAF AMD
KMKE 231316Z 2313/2418 19009KT 5SM -DZ BR OVC010
     FM231600 18010G17KT 3SM -DZ BR SCT006 OVC015
     FM232000 16010KT 3SM RA BR OVC003
     FM240200 12008KT 3/4SM RA OVC003
     FM240600 11005KT 1SM -RA OVC003
     FM241000 23004KT 2SM -RA OVC008
     FM241200 27008KT 3SM -RA OVC015
     FM241500 27012G20KT 3SM -RA OVC008
     FM241700 26018G28KT 3SM -RASN OVC015=



000
FTUS43 KMKX 231123
TAFMKE
TAF
KMKE 231123Z 2312/2418 19009KT 3SM -DZ BR OVC006
      TEMPO 2312/2315 2SM -DZ BR OVC004
     FM231500 18010G17KT 3SM -DZ BR SCT006 OVC015
     FM232000 16010KT 3SM RA BR OVC003
     FM240200 12008KT 3/4SM RA OVC003
     FM240600 11005KT 1SM -RA OVC003
     FM241000 23004KT 2SM -RA OVC008
     FM241200 27008KT 3SM -RA OVC015
     FM241500 27012G20KT 3SM -RA OVC008
     FM241700 26018G28KT 3SM -RASN OVC015=



000
FTUS43 KMKX 231123
TAFMSN
TAF
KMSN 231123Z 2312/2412 18008KT 3SM -DZ BR OVC004
      TEMPO 2312/2315 2SM BR OVC003
     FM231800 18010KT 2SM -RA BR OVC005
     FM240000 12008KT 3/4SM RA OVC003
     FM240300 10004KT 1/2SM RA OVC003
     FM240400 VRB03KT 3/4SM -RA OVC003
     FM241100 30008KT 2SM -RA OVC003=



000
FTUS43 KMKX 231123
TAFMSN
TAF
KMSN 231123Z 2312/2412 18008KT 3SM -DZ BR OVC004
      TEMPO 2312/2315 2SM BR OVC003
     FM231800 18010KT 2SM -RA BR OVC005
     FM240000 12008KT 3/4SM RA OVC003
     FM240300 10004KT 1/2SM RA OVC003
     FM240400 VRB03KT 3/4SM -RA OVC003
     FM241100 30008KT 2SM -RA OVC003=



000
FTUS43 KMKX 231123
TAFMKE
TAF
KMKE 231123Z 2312/2418 19009KT 3SM -DZ BR OVC006
      TEMPO 2312/2315 2SM -DZ BR OVC004
     FM231500 18010G17KT 3SM -DZ BR SCT006 OVC015
     FM232000 16010KT 3SM RA BR OVC003
     FM240200 12008KT 3/4SM RA OVC003
     FM240600 11005KT 1SM -RA OVC003
     FM241000 23004KT 2SM -RA OVC008
     FM241200 27008KT 3SM -RA OVC015
     FM241500 27012G20KT 3SM -RA OVC008
     FM241700 26018G28KT 3SM -RASN OVC015=



000
FTUS43 KMKX 230856 AAC
TAFMKE
TAF AMD
KMKE 230856Z 2309/2412 20011KT 6SM BR OVC009
     FM231000 19012KT 5SM -DZ BR OVC008
     FM231800 18012G20KT 2SM -RA BR OVC008
     FM232000 17012KT 3/4SM RA BR OVC003
     FM240200 13007KT 1SM RA BR OVC003
     FM240800 22006KT 6SM -RA BR OVC003
     FM240900 25007KT 6SM -RA OVC003=



000
FTUS43 KMKX 230856 AAC
TAFMKE
TAF AMD
KMKE 230856Z 2309/2412 20011KT 6SM BR OVC009
     FM231000 19012KT 5SM -DZ BR OVC008
     FM231800 18012G20KT 2SM -RA BR OVC008
     FM232000 17012KT 3/4SM RA BR OVC003
     FM240200 13007KT 1SM RA BR OVC003
     FM240800 22006KT 6SM -RA BR OVC003
     FM240900 25007KT 6SM -RA OVC003=



000
FTUS43 KMKX 230855 AAB
TAFMKE
TAF AMD
KMKE 230855Z 2309/2412 20009KT 6SM BR SCT008 OVC018
     FM231000 19009KT 5SM -DZ BR OVC008
     FM231800 18012G20KT 2SM -RA BR OVC008
     FM232000 17012KT 3/4SM RA BR OVC003
     FM240200 13007KT 1SM RA BR OVC003
     FM240800 22006KT 6SM -RA BR OVC003
     FM240900 25007KT 6SM -RA OVC003=



000
FTUS43 KMKX 230855 AAB
TAFMKE
TAF AMD
KMKE 230855Z 2309/2412 20009KT 6SM BR SCT008 OVC018
     FM231000 19009KT 5SM -DZ BR OVC008
     FM231800 18012G20KT 2SM -RA BR OVC008
     FM232000 17012KT 3/4SM RA BR OVC003
     FM240200 13007KT 1SM RA BR OVC003
     FM240800 22006KT 6SM -RA BR OVC003
     FM240900 25007KT 6SM -RA OVC003=



000
FTUS43 KMKX 230852 AAB
TAFMSN
TAF AMD
KMSN 230852Z 2309/2406 19008KT 3SM BR OVC008
      TEMPO 2309/2312 2SM -DZ BR OVC004
     FM231200 18009KT 2SM -DZ BR OVC004
     FM231800 17010KT 3/4SM RA BR OVC005
     FM232000 17009KT 1/2SM RA FG OVC003
     FM240000 14004KT 3/4SM RA BR OVC003
     FM240500 34004KT 1SM RA BR OVC003=



000
FTUS43 KMKX 230852 AAB
TAFMSN
TAF AMD
KMSN 230852Z 2309/2406 19008KT 3SM BR OVC008
      TEMPO 2309/2312 2SM -DZ BR OVC004
     FM231200 18009KT 2SM -DZ BR OVC004
     FM231800 17010KT 3/4SM RA BR OVC005
     FM232000 17009KT 1/2SM RA FG OVC003
     FM240000 14004KT 3/4SM RA BR OVC003
     FM240500 34004KT 1SM RA BR OVC003=



000
FTUS43 KMKX 230755 AAA
TAFMKE
TAF AMD
KMKE 230755Z 2308/2412 21005KT 6SM BR SCT018 OVC025
     FM230900 20009KT 5SM BR OVC018
     FM231100 19009KT 5SM -DZ BR OVC008
     FM231800 18012G20KT 2SM -RA BR OVC008
     FM232000 17012KT 3/4SM RA BR OVC003
     FM240200 13007KT 1SM RA BR OVC003
     FM240800 22006KT 6SM -RA BR OVC003
     FM240900 25007KT 6SM -RA OVC003=



000
FTUS43 KMKX 230755 AAA
TAFMKE
TAF AMD
KMKE 230755Z 2308/2412 21005KT 6SM BR SCT018 OVC025
     FM230900 20009KT 5SM BR OVC018
     FM231100 19009KT 5SM -DZ BR OVC008
     FM231800 18012G20KT 2SM -RA BR OVC008
     FM232000 17012KT 3/4SM RA BR OVC003
     FM240200 13007KT 1SM RA BR OVC003
     FM240800 22006KT 6SM -RA BR OVC003
     FM240900 25007KT 6SM -RA OVC003=



000
FTUS43 KMKX 230754 AAA
TAFMSN
TAF AMD
KMSN 230754Z 2308/2406 19007KT 6SM BR OVC009 WS020/21035KT
     FM230900 19008KT 5SM BR OVC008
     FM231200 18009KT 3SM -DZ BR OVC006
     FM231800 17010KT 3/4SM RA BR OVC008
     FM232000 17009KT 1/2SM RA FG OVC003
     FM240000 14004KT 3/4SM RA BR OVC003
     FM240500 34004KT 1SM RA BR OVC003=



000
FTUS43 KMKX 230520
TAFMSN
TAF
KMSN 230520Z 2306/2406 19007KT 6SM BR SCT008 OVC012 WS020/21035KT
     FM230900 19008KT 5SM BR BKN008 OVC015
     FM231200 18009KT 3SM -DZ BR OVC006
     FM231800 17010KT 3/4SM RA BR OVC008
     FM232000 17009KT 1/2SM RA FG OVC003
     FM240000 14004KT 3/4SM RA BR OVC003
     FM240500 34004KT 1SM RA BR OVC003=



000
FTUS43 KMKX 230520
TAFMKE
TAF
KMKE 230520Z 2306/2412 21005KT 6SM BR SCT018 OVC035
     FM230900 20009KT 5SM BR OVC018
     FM231100 19009KT 5SM -DZ BR OVC008
     FM231800 18012G20KT 2SM -RA BR OVC008
     FM232000 17012KT 3/4SM RA BR OVC003
     FM240200 13007KT 1SM RA BR OVC003
     FM240800 22006KT 6SM -RA BR OVC003
     FM240900 25007KT 6SM -RA OVC003=



000
FTUS43 KMKX 230520
TAFMKE
TAF
KMKE 230520Z 2306/2412 21005KT 6SM BR SCT018 OVC035
     FM230900 20009KT 5SM BR OVC018
     FM231100 19009KT 5SM -DZ BR OVC008
     FM231800 18012G20KT 2SM -RA BR OVC008
     FM232000 17012KT 3/4SM RA BR OVC003
     FM240200 13007KT 1SM RA BR OVC003
     FM240800 22006KT 6SM -RA BR OVC003
     FM240900 25007KT 6SM -RA OVC003=



000
FTUS43 KMKX 230520
TAFMSN
TAF
KMSN 230520Z 2306/2406 19007KT 6SM BR SCT008 OVC012 WS020/21035KT
     FM230900 19008KT 5SM BR BKN008 OVC015
     FM231200 18009KT 3SM -DZ BR OVC006
     FM231800 17010KT 3/4SM RA BR OVC008
     FM232000 17009KT 1/2SM RA FG OVC003
     FM240000 14004KT 3/4SM RA BR OVC003
     FM240500 34004KT 1SM RA BR OVC003=



000
FTUS43 KMKX 230457 AAC
TAFMKE
TAF AMD
KMKE 230457Z 2305/2406 21007KT 6SM BR SCT008 SCT015 BKN035
      WS020/23035KT
     FM230600 21008KT 5SM BR SCT018 OVC028
     FM230800 20009KT 5SM BR OVC018
     FM231100 19009KT 5SM -DZ BR OVC008
     FM231800 18012G20KT 2SM -RA BR OVC008
     FM232000 17012KT 3/4SM RA BR OVC003
     FM240200 13007KT 1SM RA BR OVC003=



000
FTUS43 KMKX 230457 AAC
TAFMKE
TAF AMD
KMKE 230457Z 2305/2406 21007KT 6SM BR SCT008 SCT015 BKN035
      WS020/23035KT
     FM230600 21008KT 5SM BR SCT018 OVC028
     FM230800 20009KT 5SM BR OVC018
     FM231100 19009KT 5SM -DZ BR OVC008
     FM231800 18012G20KT 2SM -RA BR OVC008
     FM232000 17012KT 3/4SM RA BR OVC003
     FM240200 13007KT 1SM RA BR OVC003=



000
FTUS43 KMKX 230457 AAC
TAFMKE
TAF AMD
KMKE 230457Z 2305/2406 21007KT 6SM BR SCT008 SCT015 BKN035
      WS020/23035KT
     FM230600 21008KT 5SM BR SCT018 OVC028
     FM230800 20009KT 5SM BR OVC018
     FM231100 19009KT 5SM -DZ BR OVC008
     FM231800 18012G20KT 2SM -RA BR OVC008
     FM232000 17012KT 3/4SM RA BR OVC003
     FM240200 13007KT 1SM RA BR OVC003=



000
FTUS43 KMKX 230457 AAC
TAFMKE
TAF AMD
KMKE 230457Z 2305/2406 21007KT 6SM BR SCT008 SCT015 BKN035
      WS020/23035KT
     FM230600 21008KT 5SM BR SCT018 OVC028
     FM230800 20009KT 5SM BR OVC018
     FM231100 19009KT 5SM -DZ BR OVC008
     FM231800 18012G20KT 2SM -RA BR OVC008
     FM232000 17012KT 3/4SM RA BR OVC003
     FM240200 13007KT 1SM RA BR OVC003=



000
FTUS43 KMKX 230258 AAC
TAFMSN
TAF AMD
KMSN 230258Z 2303/2324 19006KT 4SM BR OVC008 WS020/23035KT
     FM230600 19007KT 2SM -DZ BR OVC005 WS020/22035KT
     FM231500 18010KT 2SM -SHRA BR OVC003
     FM232000 17009KT 3/4SM RA BR OVC008
     FM232300 15005KT 3/4SM RA BR OVC003=



000
FTUS43 KMKX 230258 AAC
TAFMSN
TAF AMD
KMSN 230258Z 2303/2324 19006KT 4SM BR OVC008 WS020/23035KT
     FM230600 19007KT 2SM -DZ BR OVC005 WS020/22035KT
     FM231500 18010KT 2SM -SHRA BR OVC003
     FM232000 17009KT 3/4SM RA BR OVC008
     FM232300 15005KT 3/4SM RA BR OVC003=



000
FTUS43 KMKX 230257 AAB
TAFMKE
TAF AMD
KMKE 230257Z 2303/2406 19004KT 3SM BR SCT008 SCT015 BKN035
      WS020/23035KT
     FM230600 20009KT 3SM BR SCT008 OVC015 WS020/23035KT
     FM230800 20011KT 2SM -DZ BR OVC008
     FM231500 19011G20KT 2SM -SHRA BR SCT008 OVC012
     FM232000 17013KT 3/4SM RA BR OVC008
     FM232200 16011KT 3/4SM RA BR OVC008
     FM240200 13007KT 1SM RA BR OVC003=



000
FTUS43 KMKX 230257 AAB
TAFMKE
TAF AMD
KMKE 230257Z 2303/2406 19004KT 3SM BR SCT008 SCT015 BKN035
      WS020/23035KT
     FM230600 20009KT 3SM BR SCT008 OVC015 WS020/23035KT
     FM230800 20011KT 2SM -DZ BR OVC008
     FM231500 19011G20KT 2SM -SHRA BR SCT008 OVC012
     FM232000 17013KT 3/4SM RA BR OVC008
     FM232200 16011KT 3/4SM RA BR OVC008
     FM240200 13007KT 1SM RA BR OVC003=



000
FTUS43 KMKX 230055 AAA
TAFMKE
TAF AMD
KMKE 230055Z 2301/2406 22010KT 6SM BR SCT008 BKN030
     FM230300 21011KT 5SM BR SCT008 OVC015
     FM230600 20011KT 3SM -DZ BR OVC008
     FM231500 19011G20KT 2SM -SHRA BR SCT008 OVC012
     FM232000 17013KT 3/4SM RA BR OVC008
     FM232200 16011KT 3/4SM RA BR OVC008
     FM240200 13007KT 1SM RA BR OVC003=



000
FTUS43 KMKX 230055 AAA
TAFMKE
TAF AMD
KMKE 230055Z 2301/2406 22010KT 6SM BR SCT008 BKN030
     FM230300 21011KT 5SM BR SCT008 OVC015
     FM230600 20011KT 3SM -DZ BR OVC008
     FM231500 19011G20KT 2SM -SHRA BR SCT008 OVC012
     FM232000 17013KT 3/4SM RA BR OVC008
     FM232200 16011KT 3/4SM RA BR OVC008
     FM240200 13007KT 1SM RA BR OVC003=



000
FTUS43 KMKX 230053 AAB
TAFMSN
TAF AMD
KMSN 230053Z 2301/2324 18006KT 3SM BR OVC004 WS020/23035KT
     FM230300 19007KT 1 1/2SM BR OVC003 WS020/23035KT
     FM230600 19007KT 1SM -DZ BR OVC003 WS020/22040KT
     FM231500 18010KT 2SM -SHRA BR OVC003
     FM232000 17009KT 3/4SM RA BR OVC008
     FM232300 15005KT 3/4SM RA BR OVC003=



000
FTUS43 KMKX 230053 AAB
TAFMSN
TAF AMD
KMSN 230053Z 2301/2324 18006KT 3SM BR OVC004 WS020/23035KT
     FM230300 19007KT 1 1/2SM BR OVC003 WS020/23035KT
     FM230600 19007KT 1SM -DZ BR OVC003 WS020/22040KT
     FM231500 18010KT 2SM -SHRA BR OVC003
     FM232000 17009KT 3/4SM RA BR OVC008
     FM232300 15005KT 3/4SM RA BR OVC003=



000
FTUS43 KMKX 230026 AAA
TAFMSN
TAF AMD
KMSN 230026Z 2300/2324 18006KT 5SM BR OVC008 WS020/23035KT
     FM230400 19007KT 2SM BR OVC005 WS020/23035KT
     FM230600 19007KT 2SM -DZ BR OVC003 WS020/22040KT
     FM231500 18010KT 2SM -SHRA BR OVC003
     FM232000 17009KT 3/4SM RA BR OVC008
     FM232300 15005KT 3/4SM RA BR OVC003=



000
FTUS43 KMKX 230026 AAA
TAFMSN
TAF AMD
KMSN 230026Z 2300/2324 18006KT 5SM BR OVC008 WS020/23035KT
     FM230400 19007KT 2SM BR OVC005 WS020/23035KT
     FM230600 19007KT 2SM -DZ BR OVC003 WS020/22040KT
     FM231500 18010KT 2SM -SHRA BR OVC003
     FM232000 17009KT 3/4SM RA BR OVC008
     FM232300 15005KT 3/4SM RA BR OVC003=



000
FTUS43 KMKX 222320
TAFMSN
TAF
KMSN 222320Z 2300/2324 20006KT 5SM -DZ BR SCT006 OVC015
      WS020/23035KT
     FM230300 19007KT 2SM -DZ BR OVC007 WS020/23035KT
     FM230600 19007KT 2SM -DZ BR OVC003 WS020/22040KT
     FM231500 18010KT 2SM -SHRA BR OVC003
     FM232000 17009KT 3/4SM RA BR OVC008
     FM232300 15005KT 3/4SM RA BR OVC003=



000
FTUS43 KMKX 222320
TAFMSN
TAF
KMSN 222320Z 2300/2324 20006KT 5SM -DZ BR SCT006 OVC015
      WS020/23035KT
     FM230300 19007KT 2SM -DZ BR OVC007 WS020/23035KT
     FM230600 19007KT 2SM -DZ BR OVC003 WS020/22040KT
     FM231500 18010KT 2SM -SHRA BR OVC003
     FM232000 17009KT 3/4SM RA BR OVC008
     FM232300 15005KT 3/4SM RA BR OVC003=



000
FTUS43 KMKX 222320
TAFMKE
TAF
KMKE 222320Z 2300/2406 21012KT 6SM -DZ BR SCT006 BKN015 OVC025
     FM230600 20011KT 3SM -DZ BR OVC008
     FM231500 19011G20KT 2SM -SHRA BR SCT008 OVC012
     FM232000 17013KT 3/4SM RA BR OVC008
     FM232200 16011KT 3/4SM RA BR OVC008
     FM240200 13007KT 1SM RA BR OVC003=



000
FTUS43 KMKX 222320
TAFMKE
TAF
KMKE 222320Z 2300/2406 21012KT 6SM -DZ BR SCT006 BKN015 OVC025
     FM230600 20011KT 3SM -DZ BR OVC008
     FM231500 19011G20KT 2SM -SHRA BR SCT008 OVC012
     FM232000 17013KT 3/4SM RA BR OVC008
     FM232200 16011KT 3/4SM RA BR OVC008
     FM240200 13007KT 1SM RA BR OVC003=



000
FTUS43 KMKX 222216 AAB
TAFMKE
TAF AMD
KMKE 222216Z 2222/2324 21011KT 4SM BR SCT008 BKN015 OVC030
     FM230300 21008KT 2SM BR OVC005
     FM230600 20009KT 1SM -RA BR OVC003
     FM230900 20010G17KT 2SM -RA BR OVC008 WS020/35040KT
     FM231000 20011G18KT 2SM -RA BR OVC003
     FM231500 18013G20KT 1 1/2SM RA BR OVC006
     FM232300 15013KT 3/4SM RA BR OVC003=



000
FTUS43 KMKX 222213 AAB
TAFMSN
TAF AMD
KMSN 222213Z 2222/2318 22005KT 4SM BR SCT006 OVC014 WS020/23035KT
      TEMPO 2223/2303 BKN006 OVC012
     FM230300 20007KT 3/4SM BR OVC003 WS020/23035KT
     FM230600 19008KT 1SM -RA BR OVC003 WS020/22040KT
     FM231500 18011G18KT 1 1/2SM RA BR OVC003=



000
FTUS43 KMKX 222101 AAA
TAFMKE
TAF AMD
KMKE 222101Z 2221/2324 22012KT 2SM BR OVC006
     FM230300 21008KT 1SM BR OVC003
     FM230600 20009KT 1SM -RA BR OVC003
     FM230900 20010G17KT 2SM -RA BR OVC008 WS020/35040KT
     FM231000 20011G18KT 2SM -RA BR OVC003
     FM231500 18013G20KT 1 1/2SM RA BR OVC006
     FM232300 15013KT 3/4SM RA BR OVC003=



000
FTUS43 KMKX 222101 AAA
TAFMKE
TAF AMD
KMKE 222101Z 2221/2324 22012KT 2SM BR OVC006
     FM230300 21008KT 1SM BR OVC003
     FM230600 20009KT 1SM -RA BR OVC003
     FM230900 20010G17KT 2SM -RA BR OVC008 WS020/35040KT
     FM231000 20011G18KT 2SM -RA BR OVC003
     FM231500 18013G20KT 1 1/2SM RA BR OVC006
     FM232300 15013KT 3/4SM RA BR OVC003=



000
FTUS43 KMKX 222100 AAA
TAFMSN
TAF AMD
KMSN 222100Z 2221/2318 22007KT 2SM BR OVC006
     FM230300 20007KT 3/4SM BR OVC003 WS020/23035KT
     FM230600 19008KT 1SM -RA BR OVC003 WS020/22040KT
     FM231500 18011G18KT 1 1/2SM RA BR OVC003=



000
FTUS43 KMKX 221725
TAFMKE
TAF
KMKE 221725Z 2218/2324 21010G18KT 1 1/2SM BR OVC003
     FM230300 21008KT 1SM BR OVC003
     FM230600 20009KT 1SM -RA BR OVC003
     FM230900 20010G17KT 2SM -RA BR OVC008 WS020/35040KT
     FM231000 20011G18KT 2SM -RA BR OVC003
     FM231500 18013G20KT 1 1/2SM RA BR OVC006
     FM232300 15013KT 3/4SM RA BR OVC003=



000
FTUS43 KMKX 221725
TAFMSN
TAF
KMSN 221725Z 2218/2318 21008KT 1/2SM FG OVC002
     FM230300 20007KT 3/4SM BR OVC003 WS020/23035KT
     FM230600 19008KT 1SM -RA BR OVC003 WS020/22040KT
     FM231500 18011G18KT 1 1/2SM RA BR OVC003=



000
FTUS43 KMKX 221725
TAFMKE
TAF
KMKE 221725Z 2218/2324 21010G18KT 1 1/2SM BR OVC003
     FM230300 21008KT 1SM BR OVC003
     FM230600 20009KT 1SM -RA BR OVC003
     FM230900 20010G17KT 2SM -RA BR OVC008 WS020/35040KT
     FM231000 20011G18KT 2SM -RA BR OVC003
     FM231500 18013G20KT 1 1/2SM RA BR OVC006
     FM232300 15013KT 3/4SM RA BR OVC003=



000
FTUS43 KMKX 221725
TAFMSN
TAF
KMSN 221725Z 2218/2318 21008KT 1/2SM FG OVC002
     FM230300 20007KT 3/4SM BR OVC003 WS020/23035KT
     FM230600 19008KT 1SM -RA BR OVC003 WS020/22040KT
     FM231500 18011G18KT 1 1/2SM RA BR OVC003=



000
FTUS43 KMKX 221607 AAC
TAFMKE
TAF AMD
KMKE 221607Z 2216/2318 21011KT 1 1/2SM BR OVC003
     FM230200 22008KT 6SM -DZ BR OVC025
     FM230600 20009KT 6SM -RA BR OVC008
     FM231400 19013G20KT 6SM -RA BR OVC007=



000
FTUS43 KMKX 221607 AAC
TAFMKE
TAF AMD
KMKE 221607Z 2216/2318 21011KT 1 1/2SM BR OVC003
     FM230200 22008KT 6SM -DZ BR OVC025
     FM230600 20009KT 6SM -RA BR OVC008
     FM231400 19013G20KT 6SM -RA BR OVC007=



000
FTUS43 KMKX 221415 AAB
TAFMKE
TAF AMD
KMKE 221415Z 2214/2318 22010KT 1 1/2SM BR OVC003
     FM221600 22011KT 4SM -DZ BR OVC008
     FM230200 22008KT 6SM -DZ BR OVC025
     FM230600 20009KT 6SM -RA BR OVC008
     FM231400 19013G20KT 6SM -RA BR OVC007=



000
FTUS43 KMKX 221355 AAA
TAFMKE
TAF AMD
KMKE 221355Z 2214/2318 22010KT 5SM BR OVC007
      TEMPO 2214/2216 2SM BR
     FM221600 22011KT 6SM -DZ BR OVC008
     FM230200 22008KT 6SM -DZ BR OVC025
     FM230600 20009KT 6SM -RA BR OVC008
     FM231400 19013G20KT 6SM -RA BR OVC007=



000
FTUS43 KMKX 221355 AAA
TAFMKE
TAF AMD
KMKE 221355Z 2214/2318 22010KT 5SM BR OVC007
      TEMPO 2214/2216 2SM BR
     FM221600 22011KT 6SM -DZ BR OVC008
     FM230200 22008KT 6SM -DZ BR OVC025
     FM230600 20009KT 6SM -RA BR OVC008
     FM231400 19013G20KT 6SM -RA BR OVC007=



000
FTUS43 KMKX 221142
TAFMSN
TAF
KMSN 221142Z 2212/2312 21008KT 5SM -DZ BR OVC005
      TEMPO 2212/2214 1SM BR
     FM222000 21008KT 6SM BR OVC008
     FM230300 20007KT 6SM BR OVC008 WS020/23035KT
     FM230600 19008KT 6SM -RA BR OVC005=



000
FTUS43 KMKX 221142
TAFMKE
TAF
KMKE 221142Z 2212/2318 22010KT P6SM -FZDZ SCT007 OVC010
     FM221300 22010KT 6SM -FZDZ BR OVC007
     FM221500 22011KT 6SM -DZ BR OVC008
     FM230200 22008KT 6SM -DZ BR OVC025
     FM230600 20009KT 6SM -RA BR OVC008
     FM231400 19013G20KT 6SM -RA BR OVC007=



000
FTUS43 KMKX 221142
TAFMKE
TAF
KMKE 221142Z 2212/2318 22010KT P6SM -FZDZ SCT007 OVC010
     FM221300 22010KT 6SM -FZDZ BR OVC007
     FM221500 22011KT 6SM -DZ BR OVC008
     FM230200 22008KT 6SM -DZ BR OVC025
     FM230600 20009KT 6SM -RA BR OVC008
     FM231400 19013G20KT 6SM -RA BR OVC007=



000
FTUS43 KMKX 221142
TAFMSN
TAF
KMSN 221142Z 2212/2312 21008KT 5SM -DZ BR OVC005
      TEMPO 2212/2214 1SM BR
     FM222000 21008KT 6SM BR OVC008
     FM230300 20007KT 6SM BR OVC008 WS020/23035KT
     FM230600 19008KT 6SM -RA BR OVC005=



000
FTUS43 KMKX 221024 AAB
TAFMKE
TAF AMD
KMKE 221024Z 2210/2312 22013G20KT P6SM -FZRA SCT016 OVC040
      WS020/21040KT
     FM221200 22011G17KT 6SM -FZRA BR OVC010
     FM221500 22011G19KT 5SM -RADZ BR OVC008
     FM221800 22012KT P6SM SCT008 OVC015
     FM230000 23008KT 4SM BR OVC010
     FM230600 21008KT 6SM -RA BR OVC007=



000
FTUS43 KMKX 221024 AAB
TAFMKE
TAF AMD
KMKE 221024Z 2210/2312 22013G20KT P6SM -FZRA SCT016 OVC040
      WS020/21040KT
     FM221200 22011G17KT 6SM -FZRA BR OVC010
     FM221500 22011G19KT 5SM -RADZ BR OVC008
     FM221800 22012KT P6SM SCT008 OVC015
     FM230000 23008KT 4SM BR OVC010
     FM230600 21008KT 6SM -RA BR OVC007=



000
FTUS43 KMKX 221016 AAB
TAFMSN
TAF AMD
KMSN 221016Z 2210/2306 20011KT P6SM -FZDZ BKN009 OVC011
     FM221200 21009KT 5SM -FZDZ BR OVC008
     FM221400 20009KT 5SM -DZ BR OVC005
     FM221700 20009KT 6SM -DZ BR OVC008
     FM230000 22006KT 4SM BR OVC008=



000
FTUS43 KMKX 221016 AAB
TAFMSN
TAF AMD
KMSN 221016Z 2210/2306 20011KT P6SM -FZDZ BKN009 OVC011
     FM221200 21009KT 5SM -FZDZ BR OVC008
     FM221400 20009KT 5SM -DZ BR OVC005
     FM221700 20009KT 6SM -DZ BR OVC008
     FM230000 22006KT 4SM BR OVC008=



000
FTUS43 KMKX 220902 AAA
TAFMSN
TAF AMD
KMSN 220902Z 2209/2306 20011KT P6SM -FZDZ OVC011
     FM221200 21009KT 5SM -FZDZ BR OVC008
     FM221400 20009KT 5SM -DZ BR OVC005
     FM221700 20009KT 6SM -DZ BR OVC008
     FM230000 22006KT 4SM BR OVC008=



000
FTUS43 KMKX 220902 AAA
TAFMSN
TAF AMD
KMSN 220902Z 2209/2306 20011KT P6SM -FZDZ OVC011
     FM221200 21009KT 5SM -FZDZ BR OVC008
     FM221400 20009KT 5SM -DZ BR OVC005
     FM221700 20009KT 6SM -DZ BR OVC008
     FM230000 22006KT 4SM BR OVC008=



000
FTUS43 KMKX 220855 AAA
TAFMKE
TAF AMD
KMKE 220855Z 2209/2312 22013G18KT P6SM -FZRA OVC018 WS020/21040KT
     FM221200 22011G17KT 6SM -RA BR OVC010
     FM221400 22011G19KT 5SM -RADZ BR OVC008
     FM221800 22012KT P6SM SCT008 OVC015
     FM230000 23008KT 4SM BR OVC010
     FM230600 21008KT 6SM -RA BR OVC007=



000
FTUS43 KMKX 220855 AAA
TAFMKE
TAF AMD
KMKE 220855Z 2209/2312 22013G18KT P6SM -FZRA OVC018 WS020/21040KT
     FM221200 22011G17KT 6SM -RA BR OVC010
     FM221400 22011G19KT 5SM -RADZ BR OVC008
     FM221800 22012KT P6SM SCT008 OVC015
     FM230000 23008KT 4SM BR OVC010
     FM230600 21008KT 6SM -RA BR OVC007=



000
FTUS43 KMKX 220520
TAFMKE
TAF
KMKE 220520Z 2206/2312 20013G18KT P6SM OVC028 WS020/21040KT
     FM220700 21013G18KT P6SM -FZRA OVC018 WS020/21040KT
     FM221200 22011G17KT 6SM -RA BR OVC010
     FM221400 22011G19KT 5SM -RADZ BR OVC008
     FM221800 22012KT P6SM SCT008 OVC015
     FM230000 23008KT 4SM BR OVC010
     FM230600 21008KT 6SM -RA BR OVC007=



000
FTUS43 KMKX 220520
TAFMSN
TAF
KMSN 220520Z 2206/2306 20012G18KT P6SM -FZRA OVC015 WS020/21040KT
     FM220900 20011KT P6SM -FZDZ OVC011
     FM221200 21009KT 5SM -FZDZ BR OVC008
     FM221400 20009KT 5SM -DZ BR OVC005
     FM221700 20009KT 6SM -DZ BR OVC008
     FM230000 22006KT 4SM BR OVC008=



000
FTUS43 KMKX 220520
TAFMKE
TAF
KMKE 220520Z 2206/2312 20013G18KT P6SM OVC028 WS020/21040KT
     FM220700 21013G18KT P6SM -FZRA OVC018 WS020/21040KT
     FM221200 22011G17KT 6SM -RA BR OVC010
     FM221400 22011G19KT 5SM -RADZ BR OVC008
     FM221800 22012KT P6SM SCT008 OVC015
     FM230000 23008KT 4SM BR OVC010
     FM230600 21008KT 6SM -RA BR OVC007=



000
FTUS43 KMKX 220520
TAFMSN
TAF
KMSN 220520Z 2206/2306 20012G18KT P6SM -FZRA OVC015 WS020/21040KT
     FM220900 20011KT P6SM -FZDZ OVC011
     FM221200 21009KT 5SM -FZDZ BR OVC008
     FM221400 20009KT 5SM -DZ BR OVC005
     FM221700 20009KT 6SM -DZ BR OVC008
     FM230000 22006KT 4SM BR OVC008=



000
FTUS43 KMKX 220302 AAB
TAFMSN
TAF AMD
KMSN 220302Z 2203/2224 20013G20KT P6SM OVC023 WS020/22043KT
     FM220400 20013G18KT P6SM OVC018 WS020/22043KT
     FM220600 20012G18KT P6SM -FZRA OVC015 WS020/21043KT
     FM220900 20008KT P6SM -FZRA OVC010 WS020/21040KT
     FM221200 20008KT 5SM -FZDZ OVC008
     FM221400 20009KT 5SM -DZ BR OVC007
     FM221700 20008KT 5SM -DZ BR OVC015=



000
FTUS43 KMKX 220302 AAB
TAFMSN
TAF AMD
KMSN 220302Z 2203/2224 20013G20KT P6SM OVC023 WS020/22043KT
     FM220400 20013G18KT P6SM OVC018 WS020/22043KT
     FM220600 20012G18KT P6SM -FZRA OVC015 WS020/21043KT
     FM220900 20008KT P6SM -FZRA OVC010 WS020/21040KT
     FM221200 20008KT 5SM -FZDZ OVC008
     FM221400 20009KT 5SM -DZ BR OVC007
     FM221700 20008KT 5SM -DZ BR OVC015=



000
FTUS43 KMKX 220301 AAB
TAFMKE
TAF AMD
KMKE 220301Z 2203/2306 19011KT P6SM SCT029 BKN150
     FM220400 20012G18KT P6SM OVC028 WS020/22042KT
     FM220600 20013G18KT P6SM OVC018 WS020/22045KT
     FM220800 21013G18KT P6SM -FZRA OVC015 WS020/22045KT
     FM221400 22011G19KT 5SM -DZ BR SCT008 OVC012
     FM230000 22008KT 4SM BR OVC015=



000
FTUS43 KMKX 220258 AAA
TAFMKE
TAF AMD
KMKE 220258Z 2203/2306 19011KT P6SM SCT029 BKN150
     FM220400 20012KT P6SM OVC028 WS020/22042KT
     FM220600 20012KT P6SM OVC018 WS020/22045KT
     FM220800 21013KT P6SM -FZRA OVC015 WS020/22045KT
     FM221400 22011G19KT 5SM -DZ BR SCT008 OVC012
     FM230000 22008KT 4SM BR OVC015=



000
FTUS43 KMKX 220258 AAA
TAFMKE
TAF AMD
KMKE 220258Z 2203/2306 19011KT P6SM SCT029 BKN150
     FM220400 20012KT P6SM OVC028 WS020/22042KT
     FM220600 20012KT P6SM OVC018 WS020/22045KT
     FM220800 21013KT P6SM -FZRA OVC015 WS020/22045KT
     FM221400 22011G19KT 5SM -DZ BR SCT008 OVC012
     FM230000 22008KT 4SM BR OVC015=



000
FTUS43 KMKX 220230 AAA
TAFMSN
TAF AMD
KMSN 220230Z 2203/2224 19010KT P6SM BKN025 WS020/22043KT
     FM220400 19010KT P6SM OVC018 WS020/22043KT
     FM220600 19012KT P6SM -FZRA OVC015 WS020/21043KT
     FM220900 20008KT P6SM -FZRA OVC010 WS020/21040KT
     FM221200 20008KT 5SM -FZDZ OVC008
     FM221400 20009KT 5SM -DZ BR OVC007
     FM221700 20008KT 5SM -DZ BR OVC015=



000
FTUS43 KMKX 220230 AAA
TAFMSN
TAF AMD
KMSN 220230Z 2203/2224 19010KT P6SM BKN025 WS020/22043KT
     FM220400 19010KT P6SM OVC018 WS020/22043KT
     FM220600 19012KT P6SM -FZRA OVC015 WS020/21043KT
     FM220900 20008KT P6SM -FZRA OVC010 WS020/21040KT
     FM221200 20008KT 5SM -FZDZ OVC008
     FM221400 20009KT 5SM -DZ BR OVC007
     FM221700 20008KT 5SM -DZ BR OVC015=



000
FTUS43 KMKX 212320
TAFMKE
TAF
KMKE 212320Z 2200/2306 19008KT P6SM BKN150
     FM220400 20013G18KT P6SM OVC030 WS020/22045KT
     FM220700 21013G17KT P6SM -FZRA OVC022 WS020/22045KT
     FM221400 22011G19KT 5SM -DZ BR SCT008 OVC012
     FM230000 22008KT 4SM BR OVC015=



000
FTUS43 KMKX 212320
TAFMKE
TAF
KMKE 212320Z 2200/2306 19008KT P6SM BKN150
     FM220400 20013G18KT P6SM OVC030 WS020/22045KT
     FM220700 21013G17KT P6SM -FZRA OVC022 WS020/22045KT
     FM221400 22011G19KT 5SM -DZ BR SCT008 OVC012
     FM230000 22008KT 4SM BR OVC015=



000
FTUS43 KMKX 212320
TAFMSN
TAF
KMSN 212320Z 2200/2224 18010KT P6SM BKN150
     FM220300 19011KT P6SM BKN025 WS020/22043KT
     FM220600 19012KT P6SM -FZRA OVC025 WS020/21043KT
     FM220900 20008KT P6SM -FZRA OVC010 WS020/21040KT
     FM221200 20008KT 5SM -FZDZ OVC008
     FM221400 20009KT 5SM -DZ BR OVC007
     FM221700 20008KT 5SM -DZ BR OVC015=



000
FTUS43 KMKX 212320
TAFMSN
TAF
KMSN 212320Z 2200/2224 18010KT P6SM BKN150
     FM220300 19011KT P6SM BKN025 WS020/22043KT
     FM220600 19012KT P6SM -FZRA OVC025 WS020/21043KT
     FM220900 20008KT P6SM -FZRA OVC010 WS020/21040KT
     FM221200 20008KT 5SM -FZDZ OVC008
     FM221400 20009KT 5SM -DZ BR OVC007
     FM221700 20008KT 5SM -DZ BR OVC015=



    US Dept of Commerce
    National Oceanic and Atmospheric Administration
    National Weather Service
    1325 East West Highway
    Silver Spring, MD 20910
    Page Author: NWS Internet Services Team
Disclaimer
Information Quality
Credits
Glossary
Privacy Policy
Freedom of Information Act (FOIA)
About Us
Career Opportunities